Time;durP1;ratioP1;P1;durP2;ratioP2;P2;SDS_P1;SDS_P2;PMS_P1;PMS_P2;Temp;Humidity;BMP_temperature;BMP_pressure;BME280_temperature;BME280_humidity;BME280_pressure;Samples;Min_cycle;Max_cycle;Signal;HPM_P1;HPM_P2
2024/04/25 00:00:30;;;;;;;12.07;11.07;;;3.60;99.90;;;;;;5248273;27;20403;-76
2024/04/25 00:02:58;;;;;;;10.87;10.17;;;3.60;99.90;;;;;;5260012;27;20841;-76
2024/04/25 00:05:24;;;;;;;10.80;10.10;;;3.60;99.90;;;;;;5269569;27;20250;-76
2024/04/25 00:07:53;;;;;;;10.67;9.87;;;3.70;99.90;;;;;;5243855;27;20242;-76
2024/04/25 00:10:24;;;;;;;10.50;9.80;;;3.70;99.90;;;;;;5261988;27;21051;-77
2024/04/25 00:12:52;;;;;;;10.87;9.97;;;3.70;99.90;;;;;;5247767;27;20253;-76
2024/04/25 00:15:21;;;;;;;9.67;9.07;;;3.80;99.90;;;;;;5242017;27;20585;-76
2024/04/25 00:17:49;;;;;;;9.90;9.20;;;3.80;99.90;;;;;;5243017;27;20237;-76
2024/04/25 00:20:18;;;;;;;10.33;9.63;;;3.90;99.90;;;;;;5281566;27;20366;-76
2024/04/25 00:22:46;;;;;;;11.43;10.53;;;3.90;99.90;;;;;;5276112;27;20297;-76
2024/04/25 00:25:12;;;;;;;10.97;10.23;;;3.90;99.90;;;;;;5270733;27;20246;-76
2024/04/25 00:27:43;;;;;;;12.67;11.77;;;3.80;99.90;;;;;;5250751;27;20292;-76
2024/04/25 00:30:12;;;;;;;11.50;10.67;;;3.80;99.90;;;;;;5245636;27;20381;-76
2024/04/25 00:32:40;;;;;;;11.40;10.70;;;3.70;99.90;;;;;;5252281;27;20238;-76
2024/04/25 00:35:09;;;;;;;11.67;10.87;;;3.70;99.90;;;;;;5268864;27;20280;-76
2024/04/25 00:37:37;;;;;;;11.77;10.80;;;3.50;99.90;;;;;;5269970;27;20248;-76
2024/04/25 00:40:07;;;;;;;11.13;10.43;;;3.50;99.90;;;;;;5247752;27;20301;-76
2024/04/25 00:42:35;;;;;;;11.73;10.93;;;3.50;99.90;;;;;;5246664;27;20288;-76
2024/04/25 00:45:07;;;;;;;11.90;11.10;;;3.50;99.90;;;;;;5241430;27;20791;-76
2024/04/25 00:47:36;;;;;;;10.90;10.20;;;3.40;99.90;;;;;;5252055;27;20333;-77
2024/04/25 00:50:07;;;;;;;12.37;11.27;;;3.40;99.90;;;;;;5253690;27;20595;-76
2024/04/25 00:52:35;;;;;;;12.17;11.27;;;3.40;99.90;;;;;;5249601;27;20728;-76
2024/04/25 00:55:06;;;;;;;11.97;11.17;;;3.40;99.90;;;;;;5242204;27;20281;-76
2024/04/25 00:57:39;;;;;;;13.10;12.10;;;3.40;99.90;;;;;;5251240;27;20592;-76
2024/04/25 01:00:12;;;;;;;12.60;11.70;;;3.40;99.90;;;;;;5251517;27;20296;-76
2024/04/25 01:02:42;;;;;;;11.77;10.97;;;3.40;99.90;;;;;;5266332;27;20857;-76
2024/04/25 01:05:11;;;;;;;11.90;11.10;;;3.40;99.90;;;;;;5242315;27;20242;-76
2024/04/25 01:07:39;;;;;;;11.83;11.03;;;3.30;99.90;;;;;;5251521;27;20351;-76
2024/04/25 01:10:08;;;;;;;12.40;11.47;;;3.30;99.90;;;;;;5267521;27;20272;-76
2024/04/25 01:12:38;;;;;;;12.03;11.20;;;3.30;99.90;;;;;;5263677;27;20290;-76
2024/04/25 01:15:09;;;;;;;11.57;10.77;;;3.20;99.90;;;;;;5242024;27;20238;-76
2024/04/25 01:17:38;;;;;;;12.03;11.20;;;3.20;99.90;;;;;;5273838;27;20260;-76
2024/04/25 01:20:08;;;;;;;11.83;11.00;;;3.20;99.90;;;;;;5253769;27;20759;-76
2024/04/25 01:22:39;;;;;;;12.70;11.80;;;3.10;99.90;;;;;;5260774;27;20779;-76
2024/04/25 01:25:12;;;;;;;12.03;11.13;;;3.20;99.90;;;;;;5244634;27;20242;-76
2024/04/25 01:27:42;;;;;;;12.13;11.30;;;3.10;99.90;;;;;;5250670;27;20236;-76
2024/04/25 01:30:11;;;;;;;11.97;11.17;;;3.20;99.90;;;;;;5277529;27;20240;-76
2024/04/25 01:32:42;;;;;;;12.77;11.87;;;3.20;99.90;;;;;;5241833;27;20593;-76
2024/04/25 01:35:13;;;;;;;12.03;11.23;;;3.10;99.90;;;;;;5270240;27;20279;-76
2024/04/25 01:37:42;;;;;;;12.80;11.90;;;3.10;99.90;;;;;;5273073;27;20236;-76
2024/04/25 01:40:13;;;;;;;12.70;11.70;;;3.10;99.90;;;;;;5243681;27;20237;-76
2024/04/25 01:42:42;;;;;;;12.30;11.40;;;3.10;99.90;;;;;;5251112;27;20310;-76
2024/04/25 01:45:11;;;;;;;12.67;11.77;;;3.10;99.90;;;;;;5256254;27;20302;-76
2024/04/25 01:47:39;;;;;;;12.50;11.60;;;3.10;99.90;;;;;;5251107;27;20313;-76
2024/04/25 01:50:08;;;;;;;13.27;12.27;;;3.10;99.90;;;;;;5254121;27;20354;-77
2024/04/25 01:52:37;;;;;;;12.53;11.63;;;3.10;99.90;;;;;;5244140;27;20792;-76
2024/04/25 01:55:06;;;;;;;13.03;11.93;;;3.10;99.90;;;;;;5261139;27;20700;-76
2024/04/25 01:57:34;;;;;;;12.70;11.90;;;3.10;99.90;;;;;;5253236;27;20301;-76
2024/04/25 02:00:04;;;;;;;11.80;11.00;;;3.10;99.90;;;;;;5251951;27;20288;-76
2024/04/25 02:02:38;;;;;;;12.27;11.47;;;3.10;99.90;;;;;;5254241;27;20233;-77
2024/04/25 02:05:07;;;;;;;13.50;12.50;;;3.10;99.90;;;;;;5244656;27;20238;-76
2024/04/25 02:07:35;;;;;;;13.27;12.37;;;3.10;99.90;;;;;;5244483;27;20253;-76
2024/04/25 02:10:04;;;;;;;13.03;12.03;;;3.10;99.90;;;;;;5243332;27;20238;-76
2024/04/25 02:12:32;;;;;;;13.23;12.23;;;3.10;99.90;;;;;;5256573;27;20680;-76
2024/04/25 02:15:04;;;;;;;13.40;12.50;;;3.20;99.90;;;;;;5244517;27;20242;-76
2024/04/25 02:17:32;;;;;;;13.90;12.90;;;3.20;99.90;;;;;;5255607;27;20245;-76
2024/04/25 02:25:13;;;;;;;12.97;12.07;;;3.20;99.90;;;;;;5249382;27;20236;-76
2024/04/25 02:25:33;;;;;;;12.53;11.70;;;3.30;99.90;;;;;;5251332;27;20242;-76
2024/04/25 02:28:02;;;;;;;12.43;11.53;;;3.40;99.90;;;;;;5269780;27;20247;-76
2024/04/25 02:30:33;;;;;;;14.10;12.83;;;3.40;99.90;;;;;;5246897;27;20238;-76
2024/04/25 02:33:01;;;;;;;13.80;12.90;;;3.40;99.90;;;;;;5251224;27;20631;-76
2024/04/25 02:35:30;;;;;;;13.60;12.60;;;3.50;99.90;;;;;;5272378;27;20249;-76
2024/04/25 02:37:58;;;;;;;13.20;12.30;;;3.50;99.90;;;;;;5243785;27;20233;-76
2024/04/25 02:40:27;;;;;;;12.67;11.77;;;3.40;99.90;;;;;;5252273;27;20238;-76
2024/04/25 02:42:55;;;;;;;12.97;12.07;;;3.40;99.90;;;;;;5281504;27;20248;-76
2024/04/25 02:45:21;;;;;;;13.47;12.57;;;3.50;99.90;;;;;;5256781;27;20245;-76
2024/04/25 02:47:52;;;;;;;12.47;11.67;;;3.50;99.90;;;;;;5251071;27;20325;-76
2024/04/25 02:50:18;;;;;;;13.03;12.03;;;3.50;99.90;;;;;;5245137;27;20623;-76
2024/04/25 02:52:47;;;;;;;13.50;12.50;;;3.50;99.90;;;;;;5275621;27;20248;-77
2024/04/25 02:55:13;;;;;;;12.97;12.07;;;3.50;99.90;;;;;;5293427;26;20381;-77
2024/04/25 02:57:41;;;;;;;14.20;13.10;;;3.50;99.90;;;;;;5277108;27;20256;-78
2024/04/25 03:00:08;;;;;;;12.57;11.67;;;3.60;99.90;;;;;;5292978;27;20351;-78
2024/04/25 03:02:37;;;;;;;12.73;11.90;;;3.60;99.90;;;;;;5264103;27;20262;-77
2024/04/25 03:05:05;;;;;;;13.33;12.33;;;3.60;99.90;;;;;;5266774;27;20275;-78
2024/04/25 03:07:35;;;;;;;13.70;12.70;;;3.60;99.90;;;;;;5260809;27;20254;-77
2024/04/25 03:10:01;;;;;;;12.87;12.07;;;3.60;99.90;;;;;;5279220;27;20258;-77
2024/04/25 03:12:30;;;;;;;13.20;12.27;;;3.70;99.90;;;;;;5255759;27;20283;-77
2024/04/25 03:14:56;;;;;;;12.67;11.83;;;3.70;99.90;;;;;;5264965;27;20288;-77
2024/04/25 03:17:24;;;;;;;13.00;12.10;;;3.70;99.90;;;;;;5256275;27;20238;-81
2024/04/25 03:19:50;;;;;;;13.10;12.20;;;3.70;99.90;;;;;;5255525;27;20241;-78
2024/04/25 03:22:21;;;;;;;13.80;12.70;;;3.70;99.90;;;;;;5251023;27;20242;-78
2024/04/25 03:24:47;;;;;;;13.67;12.60;;;3.70;99.90;;;;;;5282718;27;20817;-78
2024/04/25 03:27:16;;;;;;;12.97;12.10;;;3.70;99.90;;;;;;5254736;27;20256;-78
2024/04/25 03:29:42;;;;;;;12.87;11.97;;;3.70;99.90;;;;;;5260963;27;20800;-78
2024/04/25 03:32:10;;;;;;;13.50;12.60;;;3.70;99.90;;;;;;5271335;27;20283;-78
2024/04/25 03:34:37;;;;;;;13.07;12.17;;;3.70;99.90;;;;;;5248253;27;20724;-79
2024/04/25 03:37:05;;;;;;;13.53;12.53;;;3.80;99.90;;;;;;5276563;27;20279;-77
2024/04/25 03:39:36;;;;;;;13.97;12.73;;;3.70;99.90;;;;;;5269704;27;20246;-78
2024/04/25 03:42:06;;;;;;;13.20;12.30;;;3.80;99.90;;;;;;5249608;27;20340;-77
2024/04/25 03:44:35;;;;;;;12.87;11.77;;;3.80;99.90;;;;;;5241494;27;20301;-77
2024/04/25 03:47:03;;;;;;;13.47;12.47;;;3.80;99.90;;;;;;5266797;27;20288;-77
2024/04/25 03:49:31;;;;;;;14.27;13.17;;;3.80;99.90;;;;;;5248209;27;20240;-77
2024/04/25 03:52:00;;;;;;;12.90;12.00;;;3.80;99.90;;;;;;5252820;27;20232;-77
2024/04/25 03:54:29;;;;;;;13.50;12.60;;;3.90;99.90;;;;;;5270530;27;20675;-77
2024/04/25 03:57:00;;;;;;;13.20;12.30;;;3.80;99.90;;;;;;5268498;27;20833;-77
2024/04/25 03:59:29;;;;;;;13.57;12.67;;;3.90;99.90;;;;;;5255272;27;20237;-77
2024/04/25 04:01:59;;;;;;;14.30;13.00;;;3.90;99.90;;;;;;5248777;27;20234;-77
2024/04/25 04:04:27;;;;;;;14.17;13.17;;;3.90;99.90;;;;;;5269653;27;20632;-77
2024/04/25 04:06:56;;;;;;;13.50;12.60;;;3.90;99.90;;;;;;5242677;27;20230;-76
2024/04/25 04:09:24;;;;;;;14.53;13.33;;;3.90;99.90;;;;;;5242456;27;20276;-77
2024/04/25 04:11:52;;;;;;;13.90;12.90;;;3.90;99.90;;;;;;5251769;27;20240;-76
2024/04/25 04:14:24;;;;;;;14.83;13.70;;;3.90;99.90;;;;;;5244345;27;20254;-77
2024/04/25 04:16:57;;;;;;;14.40;13.40;;;3.90;99.90;;;;;;5274384;27;20356;-77
2024/04/25 04:19:25;;;;;;;14.13;13.13;;;3.90;99.90;;;;;;5249147;27;20779;-77
2024/04/25 04:21:54;;;;;;;14.53;13.33;;;3.90;99.90;;;;;;5254737;27;20297;-77
2024/04/25 04:24:22;;;;;;;14.37;13.37;;;3.90;99.90;;;;;;5241892;27;20242;-77
2024/04/25 04:26:51;;;;;;;14.83;13.73;;;3.90;99.90;;;;;;5251961;27;20322;-77
2024/04/25 04:29:19;;;;;;;14.80;13.70;;;3.90;99.90;;;;;;5241642;27;20241;-77
2024/04/25 04:31:50;;;;;;;15.37;14.27;;;3.90;99.90;;;;;;5251575;27;20233;-77
2024/04/25 04:34:16;;;;;;;14.13;13.13;;;3.90;99.90;;;;;;5257622;27;20272;-76
2024/04/25 04:36:45;;;;;;;14.20;13.10;;;4.00;99.90;;;;;;5274223;27;20254;-77
2024/04/25 04:39:14;;;;;;;14.83;13.73;;;4.00;99.90;;;;;;5245563;27;20701;-77
2024/04/25 04:41:42;;;;;;;13.97;13.07;;;4.00;99.90;;;;;;5246461;27;20752;-77
2024/04/25 04:44:12;;;;;;;14.70;13.70;;;4.00;99.90;;;;;;5263726;27;20628;-77
2024/04/25 04:46:41;;;;;;;14.23;13.23;;;4.10;99.90;;;;;;5245633;27;20363;-77
2024/04/25 04:49:12;;;;;;;15.00;14.00;;;4.10;99.90;;;;;;5248546;27;20635;-77
2024/04/25 04:51:42;;;;;;;14.60;13.50;;;4.10;99.90;;;;;;5270819;27;20264;-77
2024/04/25 04:54:10;;;;;;;14.93;13.73;;;4.10;99.90;;;;;;5249600;27;20264;-77
2024/04/25 04:56:40;;;;;;;14.47;13.43;;;4.20;99.90;;;;;;5242115;27;20269;-77
2024/04/25 04:59:09;;;;;;;14.87;13.67;;;4.20;99.90;;;;;;5250641;27;20234;-77
2024/04/25 05:01:37;;;;;;;14.63;13.57;;;4.20;99.90;;;;;;5242843;27;20288;-77
2024/04/25 05:04:06;;;;;;;14.27;13.23;;;4.30;99.90;;;;;;5310937;21;20291;-81
2024/04/25 05:06:37;;;;;;;14.30;13.30;;;4.30;99.90;;;;;;5307975;27;20284;-80
2024/04/25 05:09:06;;;;;;;13.63;12.73;;;4.40;99.90;;;;;;5317759;26;20650;-80
2024/04/25 05:11:35;;;;;;;14.60;13.50;;;4.40;99.90;;;;;;5300389;26;20266;-80
2024/04/25 05:14:04;;;;;;;14.33;13.40;;;4.40;99.90;;;;;;5270600;27;20639;-81
2024/04/25 05:16:33;;;;;;;14.03;12.97;;;4.60;99.90;;;;;;5286175;27;20329;-80
2024/04/25 05:19:01;;;;;;;13.47;12.53;;;4.60;99.90;;;;;;5280793;27;20748;-80
2024/04/25 05:21:32;;;;;;;14.47;13.30;;;4.60;99.90;;;;;;5309369;27;20260;-79
2024/04/25 05:24:03;;;;;;;14.37;13.37;;;4.70;99.90;;;;;;5249172;27;20300;-79
2024/04/25 05:26:32;;;;;;;13.17;12.30;;;4.80;99.90;;;;;;5263350;27;20273;-81
2024/04/25 05:29:01;;;;;;;12.70;11.77;;;4.90;99.90;;;;;;5270617;27;20285;-80
2024/04/25 05:31:32;;;;;;;13.70;12.70;;;5.00;99.90;;;;;;5259631;27;20278;-80
2024/04/25 05:34:00;;;;;;;13.47;12.37;;;5.10;99.90;;;;;;5297665;27;20769;-80
2024/04/25 05:36:29;;;;;;;13.73;12.77;;;5.20;99.90;;;;;;5284555;27;20288;-81
2024/04/25 05:38:58;;;;;;;13.63;12.67;;;5.30;99.90;;;;;;5302242;27;20292;-80
2024/04/25 05:41:29;;;;;;;13.40;12.50;;;5.40;99.90;;;;;;5285072;27;20330;-80
2024/04/25 05:43:58;;;;;;;13.50;12.60;;;5.50;99.90;;;;;;5263146;27;20330;-81
2024/04/25 05:46:26;;;;;;;13.17;12.27;;;5.70;99.90;;;;;;5258759;27;20231;-80
2024/04/25 05:48:55;;;;;;;12.63;11.83;;;5.90;99.90;;;;;;5306705;27;20255;-79
2024/04/25 05:51:23;;;;;;;13.47;12.47;;;6.20;99.90;;;;;;5284071;27;20243;-80
2024/04/25 05:53:52;;;;;;;12.97;12.00;;;6.50;99.90;;;;;;5267158;27;20324;-79
2024/04/25 05:56:20;;;;;;;12.97;12.07;;;6.70;99.90;;;;;;5290786;27;20275;-80
2024/04/25 05:58:54;;;;;;;12.90;12.00;;;6.80;99.90;;;;;;5282760;27;20831;-79
2024/04/25 06:01:22;;;;;;;13.23;12.33;;;6.90;99.90;;;;;;5281186;27;20815;-80
2024/04/25 06:03:51;;;;;;;12.60;11.80;;;6.80;99.90;;;;;;5261776;27;20247;-79
2024/04/25 06:06:19;;;;;;;12.00;11.10;;;6.70;99.90;;;;;;5267314;27;20237;-80
2024/04/25 06:08:48;;;;;;;12.00;11.10;;;6.70;99.90;;;;;;5281494;27;20263;-80
2024/04/25 06:11:16;;;;;;;11.83;11.03;;;6.60;99.90;;;;;;5278267;27;20363;-80
2024/04/25 06:13:45;;;;;;;12.13;11.33;;;6.60;99.90;;;;;;5308236;26;20834;-80
2024/04/25 06:16:16;;;;;;;12.03;11.17;;;6.50;99.90;;;;;;5281048;27;20274;-80
2024/04/25 06:18:47;;;;;;;11.83;11.00;;;6.40;99.90;;;;;;5265507;27;20707;-79
2024/04/25 06:21:15;;;;;;;11.60;10.90;;;6.40;99.90;;;;;;5276992;27;20341;-79
2024/04/25 06:23:44;;;;;;;11.63;10.83;;;6.50;99.90;;;;;;5283597;27;20290;-78
2024/04/25 06:26:12;;;;;;;12.20;11.20;;;6.40;99.90;;;;;;5297693;26;20260;-78
2024/04/25 06:28:41;;;;;;;12.37;11.47;;;6.50;99.90;;;;;;5286335;27;20244;-78
2024/04/25 06:31:09;;;;;;;11.77;10.97;;;6.50;99.90;;;;;;5262180;27;20234;-77
2024/04/25 06:33:41;;;;;;;12.20;11.30;;;6.60;99.90;;;;;;5282417;26;20781;-79
2024/04/25 06:36:11;;;;;;;12.80;11.93;;;6.60;99.90;;;;;;5276030;27;20257;-78
2024/04/25 06:38:39;;;;;;;11.90;11.00;;;6.70;99.90;;;;;;5277209;27;20236;-78
2024/04/25 06:41:08;;;;;;;12.63;11.67;;;6.80;99.90;;;;;;5279633;27;20339;-78
2024/04/25 06:43:37;;;;;;;11.60;10.80;;;6.90;99.90;;;;;;5264614;27;20240;-79
2024/04/25 06:46:07;;;;;;;11.73;10.93;;;7.10;99.90;;;;;;5274705;27;20238;-82
2024/04/25 06:48:36;;;;;;;10.73;9.93;;;7.10;99.90;;;;;;5284777;26;20244;-81
2024/04/25 06:51:07;;;;;;;10.30;9.50;;;7.20;99.90;;;;;;5246728;27;20238;-82
2024/04/25 06:53:36;;;;;;;11.03;10.13;;;7.30;99.90;;;;;;5257961;27;20260;-79
2024/04/25 06:56:05;;;;;;;10.43;9.70;;;7.50;99.90;;;;;;5303044;27;20329;-78
2024/04/25 06:58:33;;;;;;;9.60;8.90;;;7.70;99.90;;;;;;5312104;26;20237;-79
2024/04/25 07:01:02;;;;;;;10.50;9.70;;;7.80;99.90;;;;;;5300040;27;20287;-77
2024/04/25 07:03:30;;;;;;;4.47;4.07;;;7.80;99.90;;;;;;5285474;27;20294;-79
2024/04/25 07:05:59;;;;;;;6.67;4.30;;;7.90;99.90;;;;;;5280246;27;20591;-78
2024/04/25 07:08:30;;;;;;;11.60;10.70;;;7.90;99.90;;;;;;5271128;27;20279;-79
2024/04/25 07:10:59;;;;;;;11.37;10.50;;;7.90;99.90;;;;;;5274427;27;20271;-79
2024/04/25 07:13:27;;;;;;;14.17;13.20;;;8.00;99.90;;;;;;5267806;27;20399;-79
2024/04/25 07:15:58;;;;;;;5.73;4.00;;;8.10;99.90;;;;;;5293226;27;20317;-78
2024/04/25 07:18:26;;;;;;;5.27;4.17;;;8.20;99.90;;;;;;5297974;27;20783;-78
2024/04/25 07:20:55;;;;;;;11.93;10.90;;;8.30;99.90;;;;;;5252900;27;20288;-81
2024/04/25 07:23:23;;;;;;;11.77;10.97;;;8.30;99.90;;;;;;5278620;27;20312;-82
2024/04/25 07:25:55;;;;;;;10.80;10.00;;;8.40;99.90;;;;;;5278871;27;20346;-79
2024/04/25 07:28:23;;;;;;;5.37;4.80;;;8.30;99.90;;;;;;5290510;27;20347;-78
2024/04/25 07:30:52;;;;;;;5.80;4.03;;;8.30;99.90;;;;;;5270766;27;20564;-79
2024/04/25 07:33:20;;;;;;;5.23;4.07;;;8.20;99.90;;;;;;5285962;27;20304;-78
2024/04/25 07:35:49;;;;;;;4.23;3.83;;;8.20;99.90;;;;;;5293575;27;20377;-79
2024/04/25 07:38:17;;;;;;;10.50;9.70;;;8.30;99.90;;;;;;5252434;27;20253;-79
2024/04/25 07:40:46;;;;;;;10.40;9.57;;;8.30;99.90;;;;;;5286572;27;20275;-79
2024/04/25 07:43:17;;;;;;;9.73;9.03;;;8.40;99.90;;;;;;5270281;27;20831;-78
2024/04/25 07:45:45;;;;;;;10.13;9.23;;;8.50;99.90;;;;;;5259830;27;20360;-78
2024/04/25 07:48:14;;;;;;;10.13;9.47;;;8.70;99.90;;;;;;5266336;27;20577;-78
2024/04/25 07:50:43;;;;;;;9.43;8.73;;;8.90;99.90;;;;;;5272681;27;20610;-78
2024/04/25 07:53:11;;;;;;;7.83;7.13;;;9.00;99.90;;;;;;5288441;27;20257;-78
2024/04/25 07:55:40;;;;;;;4.73;3.43;;;9.20;99.90;;;;;;5272513;27;20233;-79
2024/04/25 07:58:08;;;;;;;7.03;3.80;;;9.50;99.90;;;;;;5271361;27;20755;-77
2024/04/25 08:00:39;;;;;;;5.00;3.40;;;9.70;99.90;;;;;;5282223;27;20281;-77
2024/04/25 08:03:08;;;;;;;4.70;3.50;;;9.80;99.90;;;;;;5268832;27;20361;-78
2024/04/25 08:05:36;;;;;;;8.10;7.40;;;10.00;99.90;;;;;;5281626;27;20284;-77
2024/04/25 08:08:05;;;;;;;5.80;5.33;;;10.10;99.90;;;;;;5298093;26;20366;-78
2024/04/25 08:10:35;;;;;;;6.13;5.53;;;10.30;99.90;;;;;;5270543;27;20279;-78
2024/04/25 08:13:03;;;;;;;8.30;7.60;;;10.30;99.90;;;;;;5273683;27;20243;-78
2024/04/25 08:15:32;;;;;;;7.40;6.80;;;10.30;99.90;;;;;;5310599;26;20283;-78
2024/04/25 08:18:03;;;;;;;8.57;7.30;;;10.30;99.90;;;;;;5268688;27;20244;-78
2024/04/25 08:20:31;;;;;;;7.77;6.40;;;10.30;99.90;;;;;;5270229;27;20307;-78
2024/04/25 08:23:00;;;;;;;7.43;6.90;;;10.30;99.90;;;;;;5267976;27;20362;-78
2024/04/25 08:25:29;;;;;;;7.87;7.17;;;10.30;99.90;;;;;;5257500;27;20751;-78
2024/04/25 08:27:57;;;;;;;8.50;7.90;;;10.30;99.90;;;;;;5279270;27;20283;-78
2024/04/25 08:30:26;;;;;;;8.27;7.57;;;10.30;99.90;;;;;;5264246;27;20289;-78
2024/04/25 08:34:06;;;;;;;8.40;7.80;;;10.40;99.90;;;;;;5258339;27;20264;-82
2024/04/25 08:37:04;;;;;;;4.80;4.30;;;10.30;99.90;;;;;;5120669;27;20358;-78
2024/04/25 08:39:32;;;;;;;7.07;5.40;;;10.20;99.90;;;;;;5209884;27;20766;-77
2024/04/25 08:42:05;;;;;;;6.67;6.07;;;10.30;99.90;;;;;;5300339;26;20303;-81
2024/04/25 08:44:35;;;;;;;5.80;5.40;;;10.40;99.90;;;;;;5292877;27;20251;-78
2024/04/25 08:47:04;;;;;;;7.13;6.53;;;10.60;99.90;;;;;;5254728;27;20241;-77
2024/04/25 08:49:37;;;;;;;7.70;7.20;;;10.70;99.90;;;;;;5259811;27;20783;-78
2024/04/25 08:52:08;;;;;;;8.57;7.90;;;10.90;99.90;;;;;;5300976;26;20242;-78
2024/04/25 08:54:38;;;;;;;8.50;7.90;;;11.10;99.90;;;;;;5284700;27;20250;-78
2024/04/25 08:57:07;;;;;;;8.47;7.77;;;11.30;99.90;;;;;;5270175;27;20330;-78
2024/04/25 08:59:35;;;;;;;7.90;7.30;;;11.60;99.90;;;;;;5276362;27;20345;-78
2024/04/25 09:02:05;;;;;;;8.30;7.60;;;11.90;99.90;;;;;;5259386;27;20241;-77
2024/04/25 09:04:33;;;;;;;6.40;6.00;;;12.00;99.90;;;;;;5254791;27;20289;-78
2024/04/25 09:07:12;;;;;;;8.40;7.50;;;12.10;99.90;;;;;;5260616;27;20253;-78
2024/04/25 09:09:41;;;;;;;7.97;7.27;;;12.00;99.90;;;;;;5264768;27;20289;-78
2024/04/25 09:12:09;;;;;;;7.37;6.80;;;12.00;99.90;;;;;;5258846;27;20233;-77
2024/04/25 09:14:38;;;;;;;7.20;6.70;;;12.00;99.90;;;;;;5252794;27;20369;-77
2024/04/25 09:17:07;;;;;;;7.40;6.70;;;12.10;99.90;;;;;;5259216;27;20346;-78
2024/04/25 09:19:35;;;;;;;7.70;7.13;;;12.00;99.90;;;;;;5260851;27;20356;-78
2024/04/25 09:22:04;;;;;;;7.43;6.70;;;11.90;99.90;;;;;;5271446;27;20285;-78
2024/04/25 09:24:35;;;;;;;7.40;6.80;;;11.70;99.90;;;;;;5252455;27;20243;-78
2024/04/25 09:27:04;;;;;;;5.03;4.63;;;11.50;99.90;;;;;;5255389;27;20918;-77
2024/04/25 09:29:33;;;;;;;7.87;6.37;;;11.50;99.90;;;;;;5274574;27;20241;-78
2024/04/25 09:32:02;;;;;;;6.53;5.93;;;11.70;99.90;;;;;;5257301;27;20242;-77
2024/04/25 09:34:31;;;;;;;8.53;7.80;;;11.70;99.90;;;;;;5262896;27;20355;-78
2024/04/25 09:36:59;;;;;;;9.27;8.63;;;11.60;99.90;;;;;;5259216;27;20292;-77
2024/04/25 09:39:28;;;;;;;6.13;5.77;;;11.40;99.90;;;;;;5275415;27;20243;-77
2024/04/25 09:41:59;;;;;;;5.30;4.80;;;11.40;99.90;;;;;;5260852;27;20240;-77
2024/04/25 09:44:28;;;;;;;4.80;4.33;;;11.40;99.90;;;;;;5256701;27;20305;-78
2024/04/25 09:47:00;;;;;;;4.37;3.33;;;11.50;99.90;;;;;;5261462;27;20233;-78
2024/04/25 09:49:32;;;;;;;3.57;2.60;;;12.00;99.90;;;;;;5305075;27;20283;-78
2024/04/25 09:52:06;;;;;;;6.53;5.77;;;12.20;99.90;;;;;;5268133;27;20253;-78
2024/04/25 09:54:42;;;;;;;5.20;4.80;;;12.30;99.90;;;;;;5292215;26;20330;-78
2024/04/25 09:57:18;;;;;;;4.50;2.50;;;12.10;99.90;;;;;;5247110;27;20300;-78
2024/04/25 09:59:53;;;;;;;5.30;4.97;;;11.90;99.90;;;;;;5283515;27;20308;-77
2024/04/25 10:02:22;;;;;;;8.00;7.30;;;11.60;99.90;;;;;;5252927;27;20241;-77
2024/04/25 10:04:53;;;;;;;7.60;7.00;;;11.30;99.90;;;;;;5258901;27;20312;-77
2024/04/25 10:07:22;;;;;;;9.20;8.47;;;11.10;99.90;;;;;;5284640;27;20241;-78
2024/04/25 10:09:52;;;;;;;8.70;8.10;;;10.90;99.90;;;;;;5251268;27;20249;-82
2024/04/25 10:12:23;;;;;;;7.80;7.10;;;10.90;99.90;;;;;;5258500;27;20284;-82
2024/04/25 10:14:57;;;;;;;7.60;7.10;;;10.90;99.90;;;;;;5297505;27;20244;-82
2024/04/25 10:17:26;;;;;;;7.70;7.10;;;10.90;99.90;;;;;;5293085;27;20245;-82
2024/04/25 10:19:55;;;;;;;8.33;7.73;;;11.10;99.90;;;;;;5276707;27;20610;-82
2024/04/25 10:22:24;;;;;;;8.40;7.80;;;11.60;99.90;;;;;;5306076;26;20360;-82
2024/04/25 10:24:54;;;;;;;2.70;2.50;;;11.80;99.90;;;;;;5265377;27;20335;-82
2024/04/25 10:27:29;;;;;;;7.23;6.63;;;12.00;99.90;;;;;;5269572;27;20269;-83
2024/04/25 10:30:03;;;;;;;6.63;6.10;;;11.90;99.90;;;;;;5289123;27;20312;-83
2024/04/25 10:32:32;;;;;;;6.43;5.83;;;11.70;99.90;;;;;;5260398;27;20486;-83
2024/04/25 10:35:01;;;;;;;7.60;7.00;;;11.50;99.90;;;;;;5274693;27;20237;-82
2024/04/25 10:37:29;;;;;;;8.83;8.30;;;11.30;99.90;;;;;;5267199;27;20275;-82
2024/04/25 10:40:01;;;;;;;7.33;6.83;;;11.20;99.90;;;;;;5272628;27;20343;-82
2024/04/25 10:42:32;;;;;;;7.90;7.30;;;11.10;99.90;;;;;;5259630;27;20238;-82
2024/04/25 10:45:01;;;;;;;7.90;7.40;;;10.80;99.90;;;;;;5274429;27;20307;-81
2024/04/25 10:47:29;;;;;;;8.80;8.10;;;10.40;99.90;;;;;;5295971;27;20275;-82
2024/04/25 10:49:58;;;;;;;8.50;7.90;;;10.10;99.90;;;;;;5256770;27;20591;-82
2024/04/25 10:52:27;;;;;;;7.53;7.10;;;9.80;99.90;;;;;;5266049;27;20255;-83
2024/04/25 10:54:55;;;;;;;8.10;7.40;;;9.50;99.90;;;;;;5292063;26;20271;-81
2024/04/25 10:57:24;;;;;;;7.90;7.40;;;9.40;99.90;;;;;;5270684;27;20240;-81
2024/04/25 11:00:00;;;;;;;8.60;8.03;;;9.20;99.90;;;;;;5253722;27;20371;-80
2024/04/25 11:02:35;;;;;;;9.43;8.73;;;9.10;99.90;;;;;;5276560;27;20289;-81
2024/04/25 11:05:04;;;;;;;10.23;9.43;;;8.80;99.90;;;;;;5263233;27;20247;-81
2024/04/25 11:07:33;;;;;;;9.33;8.17;;;8.70;99.90;;;;;;5267517;27;20255;-82
2024/04/25 11:10:02;;;;;;;8.43;7.73;;;8.60;99.90;;;;;;5294860;27;20313;-82
2024/04/25 11:12:31;;;;;;;8.90;8.30;;;8.60;99.90;;;;;;5267065;27;20675;-82
2024/04/25 11:15:02;;;;;;;9.53;8.90;;;8.60;99.90;;;;;;5265923;27;20292;-82
2024/04/25 11:17:30;;;;;;;9.60;9.00;;;8.70;99.90;;;;;;5277803;27;20271;-81
2024/04/25 11:19:59;;;;;;;9.90;9.20;;;8.80;99.90;;;;;;5266821;27;20253;-80
2024/04/25 11:22:28;;;;;;;9.00;8.40;;;9.00;99.90;;;;;;5287982;27;20245;-81
2024/04/25 11:24:56;;;;;;;9.07;8.37;;;9.20;99.90;;;;;;5252984;27;20711;-81
2024/04/25 11:27:24;;;;;;;9.10;8.40;;;9.50;99.90;;;;;;5271847;27;20297;-81
2024/04/25 11:29:54;;;;;;;8.53;7.93;;;9.80;99.90;;;;;;5277253;26;20308;-81
2024/04/25 11:32:27;;;;;;;8.50;8.00;;;9.90;99.90;;;;;;5252710;27;20240;-81
2024/04/25 11:34:55;;;;;;;9.47;8.77;;;10.10;99.90;;;;;;5279311;27;20298;-80
2024/04/25 11:37:24;;;;;;;9.10;8.50;;;10.30;99.90;;;;;;5251713;27;20307;-81
2024/04/25 11:39:54;;;;;;;9.80;9.20;;;10.50;99.90;;;;;;5280787;27;20253;-82
2024/04/25 11:42:24;;;;;;;10.20;9.43;;;10.70;99.90;;;;;;5265552;27;20287;-82
2024/04/25 11:44:52;;;;;;;10.10;9.20;;;10.70;99.90;;;;;;5257692;27;20701;-82
2024/04/25 11:47:21;;;;;;;9.07;8.47;;;10.80;99.90;;;;;;5285193;27;20755;-82
2024/04/25 11:49:52;;;;;;;9.10;8.40;;;10.90;99.90;;;;;;5279630;27;20247;-81
2024/04/25 11:52:21;;;;;;;8.60;8.10;;;11.10;99.90;;;;;;5275153;27;20243;-81
2024/04/25 11:54:50;;;;;;;7.40;6.80;;;11.20;99.90;;;;;;5292423;27;20240;-81
2024/04/25 11:57:19;;;;;;;8.20;7.70;;;11.30;99.90;;;;;;5272076;27;20752;-82
2024/04/25 11:59:48;;;;;;;6.20;5.70;;;11.50;99.90;;;;;;5268595;27;20288;-82
2024/04/25 12:02:16;;;;;;;2.53;2.10;;;11.80;99.90;;;;;;5260702;27;20382;-81
2024/04/25 12:04:45;;;;;;;2.83;2.20;;;12.00;99.90;;;;;;5268487;27;20595;-80
2024/04/25 12:07:16;;;;;;;7.37;6.93;;;12.30;99.90;;;;;;5258762;27;20693;-81
2024/04/25 12:09:44;;;;;;;7.70;7.20;;;12.70;99.90;;;;;;5265972;27;20343;-81
2024/04/25 12:12:14;;;;;;;7.10;6.67;;;12.90;99.90;;;;;;5273223;27;20418;-81
2024/04/25 12:14:42;;;;;;;5.00;4.60;;;12.80;99.90;;;;;;5259244;27;20277;-81
2024/04/25 12:17:11;;;;;;;4.93;4.60;;;12.50;99.90;;;;;;5264712;27;20244;-82
2024/04/25 12:19:39;;;;;;;9.63;9.07;;;12.40;99.90;;;;;;5269436;27;20244;-82
2024/04/25 12:22:08;;;;;;;8.03;7.50;;;12.30;99.90;;;;;;5278910;27;20335;-82
2024/04/25 12:24:39;;;;;;;8.07;7.47;;;12.20;99.90;;;;;;5302845;26;20311;-82
2024/04/25 12:27:07;;;;;;;7.40;7.00;;;11.90;99.90;;;;;;5259069;27;20232;-82
2024/04/25 12:29:36;;;;;;;7.57;7.10;;;11.60;99.90;;;;;;5269005;27;20271;-82
2024/04/25 12:32:06;;;;;;;7.63;7.13;;;11.20;99.90;;;;;;5273210;27;20368;-81
2024/04/25 12:34:35;;;;;;;7.27;6.87;;;11.00;99.90;;;;;;5290760;27;20288;-82
2024/04/25 12:37:03;;;;;;;7.73;7.20;;;11.00;99.90;;;;;;5287840;27;20666;-80
2024/04/25 12:39:34;;;;;;;7.83;7.23;;;11.10;99.90;;;;;;5254856;27;20662;-81
2024/04/25 12:42:05;;;;;;;7.40;6.90;;;11.30;99.90;;;;;;5263751;27;20288;-81
2024/04/25 12:44:35;;;;;;;7.47;6.90;;;11.60;99.90;;;;;;5257337;27;20346;-82
2024/04/25 12:47:03;;;;;;;7.20;6.70;;;11.80;99.90;;;;;;5272746;27;20336;-81
2024/04/25 12:49:35;;;;;;;7.20;6.70;;;12.00;99.90;;;;;;5254848;27;20640;-81
2024/04/25 12:52:04;;;;;;;7.57;7.07;;;12.10;99.90;;;;;;5290352;27;20265;-81
2024/04/25 12:54:33;;;;;;;6.90;6.50;;;12.20;99.90;;;;;;5271743;27;20242;-81
2024/04/25 12:57:05;;;;;;;7.30;6.80;;;12.20;99.90;;;;;;5270610;27;20245;-83